Almi Sun — D5CQ8 — position and weather

sailwx.info

Track history (hours):
 
Tides and Currents Weather Stations Pressure Air Temp Water Temp Dewpoint Dewpoint Depression Visibility Wind Speed Wind Dir Waves Ship Positions

Almi Sun

Last reported at 2018-Jul-16 11:52 UTC. Time now 2018-Jul-16 16:14 UTC.
Position N 44°19' E 037°05'.

Length 274 m; draft 15.8 m.

Type: Tanker. MMSI: 636015762.

Date/timePositionNaut miles runAvg speedWind from/ knotsBaromVisibWave heightAir tempDewpointWater temp
2018-Jul-16 11:52N 44°19' E 037°05'612.8
2018-Jul-16 11:25N 44°21' E 037°13'512.6
2018-Jul-16 10:59N 44°24' E 037°19'612.5
2018-Jul-16 10:31N 44°27' E 037°27'612.7
2018-Jul-16 10:01N 44°30' E 037°35'611.7
2018-Jul-16 09:30N 44°33' E 037°41'2 4.8
2018-Jul-16 09:00N 44°35' E 037°43'0 0.5
2018-Jul-16 08:30N 44°36' E 037°43'0 0.6
2018-Jul-16 08:00N 44°36' E 037°43'0 0.7
2018-Jul-16 07:30N 44°36' E 037°42'0 0.8
2018-Jul-16 07:00N 44°36' E 037°42'0 0.3
2018-Jul-16 06:30N 44°36' E 037°42'0 0.2
2018-Jul-16 06:00N 44°36' E 037°43'0 0.2
2018-Jul-16 05:30N 44°36' E 037°43'0 0.1
2018-Jul-16 05:00N 44°36' E 037°43'0 0.3
2018-Jul-16 04:30N 44°36' E 037°43'0 0.3
2018-Jul-16 04:00N 44°37' E 037°42'0 0.2
2018-Jul-16 03:30N 44°37' E 037°43'0 0.4
2018-Jul-16 03:00N 44°36' E 037°42'0 0.3
2018-Jul-16 02:30N 44°37' E 037°42'0 0.4
2018-Jul-16 02:00N 44°37' E 037°42'0 0.3
2018-Jul-16 01:30N 44°36' E 037°43'1 1.2
2018-Jul-16 01:00N 44°36' E 037°42'3 5.5
2018-Jul-16 00:30N 44°35' E 037°38'2 4.1
2018-Jul-16 00:00N 44°37' E 037°36'1 2.7
2018-Jul-15 23:30N 44°38' E 037°36'0 0.0
2018-Jul-15 05:34N 44°38' E 037°37'0 0.3
2018-Jul-15 05:31N 44°38' E 037°37'0 0.2
2018-Jul-15 05:00N 44°38' E 037°37'0 0.0
2018-Jul-15 04:30N 44°38' E 037°36'0 0.0
2018-Jul-15 04:00N 44°38' E 037°36'0 0.0
2018-Jul-15 03:30N 44°38' E 037°36'0 0.0
2018-Jul-15 03:00N 44°38' E 037°36'1 1.8
2018-Jul-15 02:31N 44°37' E 037°35'2 4.0
2018-Jul-15 02:00N 44°35' E 037°36'1 2.3
2018-Jul-15 01:30N 44°35' E 037°38'3 5.6
2018-Jul-15 01:00N 44°34' E 037°41'611.9
2018-Jul-15 00:31N 44°34' E 037°49'4 8.8
2018-Jul-15 00:00N 44°35' E 037°56'0 0.2
2018-Jul-14 23:28N 44°35' E 037°56'0 0.0
2018-Jul-14 22:58N 44°35' E 037°56'0 0.0
2018-Jul-14 22:28N 44°35' E 037°56'0 0.0
2018-Jul-14 21:58N 44°35' E 037°56'0 0.0
2018-Jul-14 21:28N 44°35' E 037°56'0 0.1
2018-Jul-14 20:58N 44°35' E 037°56'0 0.1
2018-Jul-14 20:28N 44°35' E 037°56'0 0.0
2018-Jul-14 19:58N 44°35' E 037°56'0 0.0
2018-Jul-14 19:31N 44°35' E 037°56'0 0.0
2018-Jul-14 18:58N 44°35' E 037°56'0 0.0
2018-Jul-14 18:28N 44°35' E 037°56'0 0.2
2018-Jul-14 17:58N 44°35' E 037°56'0 0.3
2018-Jul-14 17:31N 44°35' E 037°56'0 0.1
2018-Jul-14 16:37N 44°35' E 037°55'0 0.1
2018-Jul-14 16:28N 44°35' E 037°56'0 0.0
2018-Jul-14 15:58N 44°35' E 037°55'0 0.1
2018-Jul-14 15:28N 44°35' E 037°55'0 0.3
2018-Jul-14 15:01N 44°35' E 037°56'0 0.2
2018-Jul-14 14:31N 44°35' E 037°56'0 0.0
2018-Jul-14 13:28N 44°35' E 037°56'0 0.1
2018-Jul-14 12:58N 44°35' E 037°56'0 0.0
2018-Jul-14 12:31N 44°35' E 037°56'0 0.1
2018-Jul-14 11:58N 44°35' E 037°56'0 0.0
2018-Jul-14 11:28N 44°35' E 037°55'0 0.0
2018-Jul-14 10:58N 44°35' E 037°55'0 0.6
2018-Jul-14 10:28N 44°35' E 037°55'0 0.0
2018-Jul-14 09:58N 44°35' E 037°55'0 0.0
2018-Jul-14 09:28N 44°35' E 037°55'0 0.0
2018-Jul-14 08:58N 44°35' E 037°55'0 0.1
2018-Jul-14 08:28N 44°35' E 037°55'0 0.1
2018-Jul-14 07:58N 44°35' E 037°55'0 0.0
2018-Jul-14 07:28N 44°35' E 037°55'0 0.0
2018-Jul-14 06:58N 44°35' E 037°55'0 0.1
2018-Jul-14 06:28N 44°35' E 037°55'0 0.0
2018-Jul-14 05:58N 44°35' E 037°55'0 0.1
2018-Jul-14 05:31N 44°35' E 037°55'0 0.0
2018-Jul-14 04:55N 44°35' E 037°55'0 0.0
2018-Jul-14 04:28N 44°35' E 037°55'0 0.0
2018-Jul-14 03:58N 44°35' E 037°55'0 0.0
2018-Jul-14 03:28N 44°35' E 037°55'0 0.1
2018-Jul-14 02:58N 44°35' E 037°55'0 0.1
2018-Jul-14 02:28N 44°35' E 037°55'0 0.0
2018-Jul-14 01:58N 44°35' E 037°55'0 0.0
2018-Jul-14 01:28N 44°35' E 037°55'0 0.0
2018-Jul-14 01:01N 44°35' E 037°55'0 0.0
2018-Jul-14 00:28N 44°35' E 037°55'0 0.0
2018-Jul-13 23:58N 44°35' E 037°55'0 0.1
2018-Jul-13 23:28N 44°35' E 037°55'0 0.2
2018-Jul-13 23:01N 44°35' E 037°55'0 0.1
2018-Jul-13 22:28N 44°35' E 037°55'0 0.0
2018-Jul-13 21:58N 44°35' E 037°55'0 0.1
2018-Jul-13 21:28N 44°35' E 037°55'0 0.1
2018-Jul-13 20:58N 44°35' E 037°55'0 0.1
2018-Jul-13 20:28N 44°35' E 037°55'0 0.2
2018-Jul-13 19:58N 44°35' E 037°55'0 0.0
2018-Jul-13 19:28N 44°35' E 037°55'0 0.1
2018-Jul-13 18:58N 44°35' E 037°55'0 0.0
2018-Jul-13 18:28N 44°35' E 037°55'0 0.1
2018-Jul-13 17:58N 44°35' E 037°55'0 0.0
2018-Jul-13 17:31N 44°35' E 037°55'0 0.1
2018-Jul-13 17:01N 44°35' E 037°55'0 0.1
2018-Jul-13 16:28N 44°35' E 037°55'0 0.2
2018-Jul-13 15:58N 44°35' E 037°55'0 0.0
2018-Jul-13 15:28N 44°35' E 037°55'0 0.0
2018-Jul-13 15:01N 44°35' E 037°55'0 0.0
2018-Jul-13 14:28N 44°35' E 037°55'0 0.0
2018-Jul-13 13:28N 44°35' E 037°56'0 0.0
2018-Jul-13 12:58N 44°35' E 037°56'0 0.0
2018-Jul-13 12:31N 44°35' E 037°56'0 0.0
2018-Jul-13 11:58N 44°35' E 037°56'0 0.0
2018-Jul-13 11:28N 44°35' E 037°56'0 0.0
2018-Jul-13 10:55N 44°35' E 037°56'0 0.0
2018-Jul-13 10:28N 44°35' E 037°56'0 0.0
2018-Jul-13 10:01N 44°35' E 037°56'0 0.3
2018-Jul-13 09:28N 44°35' E 037°55'0 0.1
2018-Jul-13 08:58N 44°35' E 037°55'0 0.0
2018-Jul-13 08:31N 44°35' E 037°55'0 0.0
2018-Jul-13 07:58N 44°35' E 037°55'0 0.1
2018-Jul-13 07:28N 44°35' E 037°55'0 0.2
2018-Jul-13 06:58N 44°35' E 037°55'0 0.0
2018-Jul-13 06:28N 44°35' E 037°55'0 0.1
2018-Jul-13 05:58N 44°35' E 037°55'0 0.1
2018-Jul-13 05:31N 44°35' E 037°55'0 0.1
2018-Jul-13 04:58N 44°35' E 037°55'0 0.1
2018-Jul-13 04:31N 44°35' E 037°55'0 0.1
2018-Jul-13 03:55N 44°35' E 037°55'0 0.1
2018-Jul-13 03:28N 44°35' E 037°55'0 0.0
2018-Jul-13 02:58N 44°35' E 037°55'0 0.1
2018-Jul-13 02:28N 44°35' E 037°55'0 0.1
2018-Jul-13 01:58N 44°35' E 037°55'0 0.1
2018-Jul-13 01:28N 44°35' E 037°55'0 0.0
2018-Jul-13 01:01N 44°35' E 037°55'0 0.1
2018-Jul-13 00:28N 44°35' E 037°55'0 0.1
2018-Jul-12 23:58N 44°35' E 037°55'0 0.0
2018-Jul-12 23:31N 44°35' E 037°55'0 0.0
2018-Jul-12 22:58N 44°35' E 037°55'0 0.1
2018-Jul-12 22:25N 44°35' E 037°55'0 0.1
2018-Jul-12 21:58N 44°35' E 037°55'0 0.1
2018-Jul-12 21:28N 44°35' E 037°55'0 0.0
2018-Jul-12 20:58N 44°35' E 037°55'0 0.0
2018-Jul-12 20:28N 44°35' E 037°55'0 0.1
2018-Jul-12 20:01N 44°35' E 037°55'0 0.1
2018-Jul-12 19:28N 44°35' E 037°55'0 0.1
2018-Jul-12 18:58N 44°35' E 037°55'0 0.1
2018-Jul-12 18:28N 44°35' E 037°55'0 0.0
2018-Jul-12 17:58N 44°35' E 037°55'0 0.2
2018-Jul-12 17:31N 44°35' E 037°55'0 0.1
2018-Jul-12 16:58N 44°35' E 037°55'0 0.1
2018-Jul-12 16:31N 44°35' E 037°55'0 0.0
2018-Jul-12 15:58N 44°35' E 037°55'0 0.1
2018-Jul-12 15:31N 44°35' E 037°55'0 0.1
2018-Jul-12 14:58N 44°35' E 037°55'0 0.0
2018-Jul-12 14:28N 44°35' E 037°55'0 0.0
2018-Jul-12 13:55N 44°35' E 037°55'0 0.1
2018-Jul-12 13:28N 44°35' E 037°55'0 0.0
2018-Jul-12 12:58N 44°35' E 037°55'0 0.1
2018-Jul-12 12:28N 44°35' E 037°55'0 0.1
2018-Jul-12 11:58N 44°35' E 037°55'0 0.0
2018-Jul-12 11:28N 44°35' E 037°55'0 0.0
2018-Jul-12 10:58N 44°35' E 037°55'0 0.0
2018-Jul-12 10:31N 44°35' E 037°55'0 0.0
2018-Jul-12 09:58N 44°35' E 037°55'0 0.0
2018-Jul-12 09:28N 44°35' E 037°55'0 0.0
2018-Jul-12 08:58N 44°35' E 037°55'0 0.0
2018-Jul-12 08:28N 44°35' E 037°55'0 0.0
2018-Jul-12 07:58N 44°35' E 037°55'0 0.0
2018-Jul-12 07:28N 44°35' E 037°55'0 0.0
2018-Jul-12 06:58N 44°35' E 037°55'0 0.0
2018-Jul-12 06:28N 44°35' E 037°55'0 0.0
2018-Jul-12 05:58N 44°35' E 037°55'0 0.0
2018-Jul-12 05:28N 44°35' E 037°55'0 0.0
2018-Jul-12 04:58N 44°35' E 037°55'0 0.0
2018-Jul-12 04:28N 44°35' E 037°55'0 0.1
2018-Jul-12 03:58N 44°35' E 037°55'0 0.0
2018-Jul-12 03:28N 44°35' E 037°55'0 0.1
2018-Jul-12 02:58N 44°35' E 037°55'0 0.0
2018-Jul-12 02:28N 44°35' E 037°55'0 0.0
2018-Jul-12 02:01N 44°35' E 037°55'0 0.0
2018-Jul-12 01:28N 44°35' E 037°55'0 0.0
2018-Jul-12 00:58N 44°35' E 037°55'0 0.0
2018-Jul-12 00:31N 44°35' E 037°55'0 0.0
2018-Jul-11 23:58N 44°35' E 037°55'0 0.0
2018-Jul-11 23:28N 44°35' E 037°55'0 0.0
2018-Jul-11 22:58N 44°35' E 037°55'0 0.0
2018-Jul-11 22:31N 44°35' E 037°55'0 0.0
2018-Jul-11 21:58N 44°35' E 037°55'0 0.0
2018-Jul-11 21:28N 44°35' E 037°55'0 0.0
2018-Jul-11 20:58N 44°35' E 037°55'0 0.0
2018-Jul-11 20:28N 44°35' E 037°55'0 0.0
2018-Jul-11 19:58N 44°35' E 037°55'0 0.0
2018-Jul-11 19:28N 44°35' E 037°55'0 0.1
2018-Jul-11 18:58N 44°35' E 037°55'0 0.0
2018-Jul-11 18:28N 44°35' E 037°55'0 0.0
2018-Jul-11 18:01N 44°35' E 037°55'0 0.0
2018-Jul-11 17:25N 44°35' E 037°55'0 0.0
2018-Jul-11 16:58N 44°35' E 037°55'0 0.0
2018-Jul-11 16:31N 44°35' E 037°55'0 0.0
2018-Jul-11 15:58N 44°35' E 037°55'0 0.0
2018-Jul-11 15:28N 44°35' E 037°55'0 0.0
2018-Jul-11 14:58N 44°35' E 037°55'0 0.0
2018-Jul-11 14:31N 44°35' E 037°55'0 0.0
2018-Jul-11 13:55N 44°35' E 037°55'0 0.0
2018-Jul-11 13:25N 44°35' E 037°55'0 0.0
2018-Jul-11 12:58N 44°35' E 037°55'0 0.0
2018-Jul-11 12:28N 44°35' E 037°55'0 0.0
2018-Jul-11 11:58N 44°35' E 037°55'0 0.0
2018-Jul-11 11:28N 44°35' E 037°55'0 0.0
2018-Jul-11 11:01N 44°35' E 037°55'0 0.0
2018-Jul-11 10:28N 44°35' E 037°55'0 0.0
2018-Jul-11 09:58N 44°35' E 037°55'0 0.0
2018-Jul-11 09:28N 44°35' E 037°55'0 0.0
2018-Jul-11 09:01N 44°35' E 037°55'0 0.0
2018-Jul-11 08:31N 44°35' E 037°55'0 0.0
2018-Jul-11 07:58N 44°35' E 037°55'0 0.0
2018-Jul-11 07:28N 44°35' E 037°55'0 0.0
2018-Jul-11 06:58N 44°35' E 037°55'0 0.0
2018-Jul-11 06:28N 44°35' E 037°55'0 0.0
2018-Jul-11 06:01N 44°35' E 037°55'0 0.0
2018-Jul-11 05:28N 44°35' E 037°55'0 0.0
2018-Jul-11 04:58N 44°35' E 037°55'0 0.0
2018-Jul-11 04:28N 44°35' E 037°55'0 0.0
2018-Jul-11 04:01N 44°35' E 037°55'0 0.0
2018-Jul-11 03:28N 44°35' E 037°55'0 0.0
2018-Jul-11 02:58N 44°35' E 037°55'0 0.0
2018-Jul-11 02:28N 44°35' E 037°55'0 0.0
2018-Jul-11 01:58N 44°35' E 037°55'0 0.0
2018-Jul-11 01:28N 44°35' E 037°55'0 0.0
2018-Jul-11 00:58N 44°35' E 037°55'0 0.0
2018-Jul-11 00:28N 44°35' E 037°55'0 0.0
2018-Jul-10 23:58N 44°35' E 037°55'0 0.0
2018-Jul-10 23:28N 44°35' E 037°55'0 0.0
2018-Jul-10 22:58N 44°35' E 037°55'0 0.0
2018-Jul-10 22:28N 44°35' E 037°55'0 0.0
2018-Jul-10 21:58N 44°35' E 037°55'0 0.0
2018-Jul-10 21:28N 44°35' E 037°55'0 0.2
2018-Jul-10 20:58N 44°35' E 037°55'0 0.1
2018-Jul-10 20:28N 44°35' E 037°55'0 0.1
2018-Jul-10 20:01N 44°35' E 037°55'0 0.1
2018-Jul-10 19:25N 44°35' E 037°55'0 0.0
2018-Jul-10 18:55N 44°35' E 037°55'0 0.0
2018-Jul-10 18:28N 44°35' E 037°55'0 0.0
2018-Jul-10 17:58N 44°35' E 037°55'0 0.1
2018-Jul-10 17:28N 44°35' E 037°55'0 0.0
2018-Jul-10 16:58N 44°35' E 037°55'0 0.0
2018-Jul-10 16:28N 44°35' E 037°55'0 0.0
2018-Jul-10 16:01N 44°35' E 037°55'0 0.0
2018-Jul-10 15:28N 44°35' E 037°55'0 0.0
2018-Jul-10 14:58N 44°35' E 037°55'0 0.0
2018-Jul-10 14:28N 44°35' E 037°55'0 0.0
2018-Jul-10 13:58N 44°35' E 037°55'0 0.0
2018-Jul-10 13:31N 44°35' E 037°55'0 0.0
2018-Jul-10 12:58N 44°35' E 037°55'0 0.0
2018-Jul-10 12:31N 44°35' E 037°55'0 0.0
2018-Jul-10 12:01N 44°35' E 037°55'0 0.0
2018-Jul-10 11:28N 44°35' E 037°55'0 0.0
2018-Jul-10 10:58N 44°35' E 037°55'0 0.0
2018-Jul-10 10:25N 44°35' E 037°55'0 0.0
2018-Jul-10 09:58N 44°35' E 037°55'0 0.0
2018-Jul-10 09:28N 44°35' E 037°55'0 0.0
2018-Jul-10 08:58N 44°35' E 037°55'0 0.0
2018-Jul-10 08:28N 44°35' E 037°55'0 0.0
2018-Jul-10 07:58N 44°35' E 037°55'0 0.0
2018-Jul-10 07:31N 44°35' E 037°55'0 0.0
2018-Jul-10 06:58N 44°35' E 037°55'0 0.0
2018-Jul-10 06:28N 44°35' E 037°55'0 0.0
2018-Jul-10 05:58N 44°35' E 037°55'0 0.0
2018-Jul-10 05:28N 44°35' E 037°55'0 0.1
2018-Jul-10 04:58N 44°35' E 037°55'0 0.0
2018-Jul-10 04:31N 44°35' E 037°55'0 0.0
2018-Jul-10 03:58N 44°35' E 037°55'0 0.0
2018-Jul-10 03:28N 44°35' E 037°55'0 0.0
2018-Jul-10 03:01N 44°35' E 037°55'0 0.1
2018-Jul-10 02:28N 44°35' E 037°55'0 0.0
2018-Jul-10 01:58N 44°35' E 037°55'0 0.0
2018-Jul-10 01:31N 44°35' E 037°55'0 0.0
2018-Jul-10 00:55N 44°35' E 037°55'0 0.0
2018-Jul-10 00:28N 44°35' E 037°55'0 0.0
2018-Jul-09 23:58N 44°35' E 037°55'0 0.0
2018-Jul-09 23:28N 44°35' E 037°55'0 0.0
2018-Jul-09 22:58N 44°35' E 037°55'0 0.0
2018-Jul-09 22:31N 44°35' E 037°55'0 0.0
2018-Jul-09 21:58N 44°35' E 037°55'0 0.0
2018-Jul-09 21:28N 44°35' E 037°55'0 0.1
2018-Jul-09 20:58N 44°35' E 037°55'0 0.1
2018-Jul-09 20:28N 44°35' E 037°55'0 0.0
2018-Jul-09 19:58N 44°35' E 037°55'0 0.0
2018-Jul-09 19:28N 44°35' E 037°55'0 0.0
2018-Jul-09 19:01N 44°35' E 037°55'0 0.0
2018-Jul-09 18:28N 44°35' E 037°55'0 0.0
2018-Jul-09 17:58N 44°35' E 037°55'0 0.0
2018-Jul-09 17:28N 44°35' E 037°55'0 0.0
2018-Jul-09 16:58N 44°35' E 037°55'0 0.0
2018-Jul-09 16:28N 44°35' E 037°55'0 0.0
2018-Jul-09 15:58N 44°35' E 037°55'0 0.0
2018-Jul-09 15:28N 44°35' E 037°55'0 0.0
2018-Jul-09 14:58N 44°35' E 037°55'0 0.0
2018-Jul-09 14:31N 44°35' E 037°55'0 0.0
2018-Jul-09 13:58N 44°35' E 037°55'0 0.0
2018-Jul-09 13:31N 44°35' E 037°55'0 0.0
2018-Jul-09 13:01N 44°35' E 037°55'0 0.0
2018-Jul-09 12:28N 44°35' E 037°55'0 0.0
2018-Jul-09 11:58N 44°35' E 037°55'0 0.0
2018-Jul-09 11:28N 44°35' E 037°55'0 0.0
2018-Jul-09 10:58N 44°35' E 037°55'0 0.0
2018-Jul-09 10:28N 44°35' E 037°55'0 0.0
2018-Jul-09 09:58N 44°35' E 037°55'0 0.0
2018-Jul-09 09:28N 44°35' E 037°55'0 0.0
2018-Jul-09 09:01N 44°35' E 037°55'0 0.0
2018-Jul-09 08:28N 44°35' E 037°55'0 0.0
2018-Jul-09 07:58N 44°35' E 037°55'0 0.0
2018-Jul-09 07:28N 44°35' E 037°55'0 0.0
2018-Jul-09 06:58N 44°35' E 037°55'0 0.0
2018-Jul-09 06:28N 44°35' E 037°55'0 0.0
2018-Jul-09 05:58N 44°35' E 037°55'0 0.0
2018-Jul-09 05:31N 44°35' E 037°55'0 0.0
2018-Jul-09 04:58N 44°35' E 037°55'0 0.0
2018-Jul-09 04:28N 44°35' E 037°55'0 0.0
2018-Jul-09 03:58N 44°35' E 037°55'0 0.0
2018-Jul-09 03:28N 44°35' E 037°55'0 0.0
2018-Jul-09 02:58N 44°35' E 037°55'0 0.0
2018-Jul-09 02:28N 44°35' E 037°55'0 0.0
2018-Jul-09 01:58N 44°35' E 037°55'0 0.0
2018-Jul-09 01:28N 44°35' E 037°55'0 0.0
2018-Jul-09 00:58N 44°35' E 037°55'0 0.0
2018-Jul-09 00:28N 44°35' E 037°55'0 0.0
2018-Jul-09 00:01N 44°35' E 037°55'0 0.0
2018-Jul-08 23:28N 44°35' E 037°55'0 0.0
2018-Jul-08 22:58N 44°35' E 037°55'0 0.1
2018-Jul-08 22:28N 44°35' E 037°55'0 0.0
2018-Jul-08 21:55N 44°35' E 037°55'0 0.4
2018-Jul-08 21:28N 44°35' E 037°55'0 0.3
2018-Jul-08 21:01N 44°35' E 037°55'0 0.1
2018-Jul-08 20:31N 44°35' E 037°55'0 0.0
2018-Jul-08 19:58N 44°35' E 037°55'0 0.0
2018-Jul-08 19:28N 44°35' E 037°55'0 0.1
2018-Jul-08 18:58N 44°35' E 037°55'0 0.0
2018-Jul-08 18:28N 44°35' E 037°55'0 0.0
2018-Jul-08 17:58N 44°35' E 037°55'0 0.1
2018-Jul-08 17:25N 44°35' E 037°55'0 0.1
2018-Jul-08 17:01N 44°35' E 037°55'0 0.1
2018-Jul-08 16:31N 44°35' E 037°55'0 0.0
2018-Jul-08 15:58N 44°35' E 037°55'0 0.1
2018-Jul-08 15:28N 44°35' E 037°55'0 0.1
2018-Jul-08 14:58N 44°35' E 037°55'0 0.1
2018-Jul-08 14:25N 44°35' E 037°55'0 0.0
2018-Jul-08 13:55N 44°35' E 037°55'0 0.1
2018-Jul-08 13:31N 44°35' E 037°55'0 0.0
2018-Jul-08 12:58N 44°35' E 037°55'0 0.0
2018-Jul-08 12:31N 44°35' E 037°55'0 0.0
2018-Jul-08 12:01N 44°35' E 037°55'0 0.0
2018-Jul-08 11:28N 44°35' E 037°55'0 0.1
2018-Jul-08 10:58N 44°35' E 037°55'0 0.1
2018-Jul-08 10:28N 44°35' E 037°55'0 0.1
2018-Jul-08 10:01N 44°35' E 037°55'0 0.0
2018-Jul-08 09:31N 44°35' E 037°55'0 0.0
2018-Jul-08 08:58N 44°35' E 037°55'0 0.0
2018-Jul-08 08:28N 44°35' E 037°55'0 0.0
2018-Jul-08 07:58N 44°35' E 037°55'0 0.0
2018-Jul-08 07:28N 44°35' E 037°55'0 0.1
2018-Jul-08 06:58N 44°35' E 037°55'0 0.1
2018-Jul-08 06:28N 44°35' E 037°55'0 0.0
2018-Jul-08 06:01N 44°35' E 037°55'0 0.1
2018-Jul-08 05:28N 44°35' E 037°55'0 0.0
2018-Jul-08 04:58N 44°35' E 037°55'0 0.0
2018-Jul-08 04:28N 44°35' E 037°55'0 0.1
2018-Jul-08 03:58N 44°35' E 037°55'0 0.0
2018-Jul-08 03:31N 44°35' E 037°55'0 0.0
2018-Jul-08 02:58N 44°35' E 037°55'0 0.0
2018-Jul-08 02:28N 44°35' E 037°55'0 0.0
2018-Jul-08 01:58N 44°35' E 037°55'0 0.0
2018-Jul-08 01:25N 44°35' E 037°55'0 0.0
2018-Jul-08 00:58N 44°35' E 037°55'0 0.1
2018-Jul-08 00:28N 44°35' E 037°55'0 0.2
2018-Jul-08 00:01N 44°35' E 037°55'0 0.2
2018-Jul-07 23:28N 44°35' E 037°55'0 0.1
2018-Jul-07 22:58N 44°35' E 037°55'0 0.1
2018-Jul-07 22:28N 44°35' E 037°55'0 0.0
2018-Jul-07 22:01N 44°35' E 037°55'0 0.1
2018-Jul-07 21:31N 44°35' E 037°55'0 0.1
2018-Jul-07 21:01N 44°35' E 037°55'0 0.0
2018-Jul-07 20:28N 44°35' E 037°55'0 0.0
2018-Jul-07 19:58N 44°35' E 037°55'0 0.1
2018-Jul-07 19:31N 44°35' E 037°55'0 0.1
2018-Jul-07 18:58N 44°35' E 037°55'0 0.1
2018-Jul-07 18:31N 44°35' E 037°55'0 0.0
2018-Jul-07 17:58N 44°35' E 037°55'0 0.0
2018-Jul-07 17:28N 44°35' E 037°55'0 0.0
2018-Jul-07 16:58N 44°35' E 037°55'0 0.0
2018-Jul-07 16:28N 44°35' E 037°55'0 0.0
2018-Jul-07 16:01N 44°35' E 037°55'0 0.0
2018-Jul-07 15:31N 44°35' E 037°55'0 0.0
2018-Jul-07 14:58N 44°35' E 037°55'0 0.0
2018-Jul-07 14:28N 44°35' E 037°55'0 0.0
2018-Jul-07 13:58N 44°35' E 037°55'0 0.2
2018-Jul-07 13:28N 44°35' E 037°55'0 0.1
2018-Jul-07 12:58N 44°35' E 037°55'0 0.0
2018-Jul-07 12:28N 44°35' E 037°55'0 0.1
2018-Jul-07 11:58N 44°35' E 037°55'0 0.0
2018-Jul-07 11:28N 44°35' E 037°55'0 0.1
2018-Jul-07 10:58N 44°35' E 037°55'0 0.3
2018-Jul-07 10:28N 44°35' E 037°55'0 0.1
2018-Jul-07 09:58N 44°35' E 037°55'0 0.0
2018-Jul-07 09:28N 44°35' E 037°55'0 0.0
2018-Jul-07 08:58N 44°35' E 037°55'0 0.0
2018-Jul-07 08:31N 44°35' E 037°55'0 0.0
2018-Jul-07 07:58N 44°35' E 037°55'0 0.0
2018-Jul-07 07:28N 44°35' E 037°55'0 0.0
2018-Jul-07 06:58N 44°35' E 037°55'0 0.0
2018-Jul-07 06:28N 44°35' E 037°55'0 0.1
2018-Jul-07 06:01N 44°35' E 037°55'0 0.0
2018-Jul-07 05:28N 44°35' E 037°55'0 0.0
2018-Jul-07 04:58N 44°35' E 037°55'0 0.0
2018-Jul-07 04:28N 44°35' E 037°55'0 0.0
2018-Jul-07 04:01N 44°35' E 037°55'0 0.0
2018-Jul-07 03:31N 44°35' E 037°55'0 0.0
2018-Jul-07 02:58N 44°35' E 037°55'0 0.0
2018-Jul-07 02:28N 44°35' E 037°55'0 0.0
2018-Jul-07 01:58N 44°35' E 037°55'0 0.0
2018-Jul-07 01:28N 44°35' E 037°55'0 0.0
2018-Jul-07 01:01N 44°35' E 037°55'0 0.0
2018-Jul-07 00:28N 44°35' E 037°55'0 0.0
2018-Jul-07 00:01N 44°35' E 037°55'0 0.1
2018-Jul-06 23:28N 44°35' E 037°55'0 0.0
2018-Jul-06 22:58N 44°35' E 037°55'0 0.0
2018-Jul-06 22:28N 44°35' E 037°55'0 0.0
2018-Jul-06 21:58N 44°35' E 037°55'0 0.0
2018-Jul-06 21:25N 44°35' E 037°55'0 0.0
2018-Jul-06 20:58N 44°35' E 037°55'0 0.0
2018-Jul-06 20:28N 44°35' E 037°55'0 0.0
2018-Jul-06 19:58N 44°35' E 037°55'0 0.0
2018-Jul-06 19:28N 44°35' E 037°55'0 0.0
2018-Jul-06 18:58N 44°35' E 037°55'0 0.0
2018-Jul-06 18:28N 44°35' E 037°55'0 0.0
2018-Jul-06 18:01N 44°35' E 037°55'0 0.0
2018-Jul-06 17:28N 44°35' E 037°55'0 0.0
2018-Jul-06 16:58N 44°35' E 037°55'0 0.0
2018-Jul-06 16:28N 44°35' E 037°55'0 0.0
2018-Jul-06 15:58N 44°35' E 037°55'0 0.0
2018-Jul-06 15:28N 44°35' E 037°55'0 0.0
2018-Jul-06 14:58N 44°35' E 037°55'0 0.2
2018-Jul-06 14:28N 44°35' E 037°55'1 1.6
2018-Jul-06 14:00N 44°35' E 037°54'1 2.6
2018-Jul-06 13:31N 44°34' E 037°53'3 5.5
2018-Jul-06 13:00N 44°34' E 037°49'2 4.7
2018-Jul-06 12:30N 44°33' E 037°46'1 2.0
2018-Jul-06 12:01N 44°32' E 037°45'  
Track history (hours):
 
Tides and Currents Weather Stations Pressure Air Temp Water Temp Dewpoint Dewpoint Depression Visibility Wind Speed Wind Dir Waves Ship Positions

Almi Sun

Last reported at 2018-Jul-16 11:52 UTC. Time now 2018-Jul-16 16:14 UTC.
Position N 44°19' E 037°05'.

Length 274 m; draft 15.8 m.

Type: Tanker. MMSI: 636015762.

Date/timePositionNaut miles runAvg speedWind from/ knotsBaromVisibWave heightAir tempDewpointWater temp
2018-Jul-16 11:52N 44°19' E 037°05'612.8
2018-Jul-16 11:25N 44°21' E 037°13'512.6
2018-Jul-16 10:59N 44°24' E 037°19'612.5
2018-Jul-16 10:31N 44°27' E 037°27'612.7
2018-Jul-16 10:01N 44°30' E 037°35'611.7
2018-Jul-16 09:30N 44°33' E 037°41'2 4.8
2018-Jul-16 09:00N 44°35' E 037°43'0 0.5
2018-Jul-16 08:30N 44°36' E 037°43'0 0.6
2018-Jul-16 08:00N 44°36' E 037°43'0 0.7
2018-Jul-16 07:30N 44°36' E 037°42'0 0.8
2018-Jul-16 07:00N 44°36' E 037°42'0 0.3
2018-Jul-16 06:30N 44°36' E 037°42'0 0.2
2018-Jul-16 06:00N 44°36' E 037°43'0 0.2
2018-Jul-16 05:30N 44°36' E 037°43'0 0.1
2018-Jul-16 05:00N 44°36' E 037°43'0 0.3
2018-Jul-16 04:30N 44°36' E 037°43'0 0.3
2018-Jul-16 04:00N 44°37' E 037°42'0 0.2
2018-Jul-16 03:30N 44°37' E 037°43'0 0.4
2018-Jul-16 03:00N 44°36' E 037°42'0 0.3
2018-Jul-16 02:30N 44°37' E 037°42'0 0.4
2018-Jul-16 02:00N 44°37' E 037°42'0 0.3
2018-Jul-16 01:30N 44°36' E 037°43'1 1.2
2018-Jul-16 01:00N 44°36' E 037°42'3 5.5
2018-Jul-16 00:30N 44°35' E 037°38'2 4.1
2018-Jul-16 00:00N 44°37' E 037°36'1 2.7
2018-Jul-15 23:30N 44°38' E 037°36'0 0.0
2018-Jul-15 05:34N 44°38' E 037°37'0 0.3
2018-Jul-15 05:31N 44°38' E 037°37'0 0.2
2018-Jul-15 05:00N 44°38' E 037°37'0 0.0
2018-Jul-15 04:30N 44°38' E 037°36'0 0.0
2018-Jul-15 04:00N 44°38' E 037°36'0 0.0
2018-Jul-15 03:30N 44°38' E 037°36'0 0.0
2018-Jul-15 03:00N 44°38' E 037°36'1 1.8
2018-Jul-15 02:31N 44°37' E 037°35'2 4.0
2018-Jul-15 02:00N 44°35' E 037°36'1 2.3
2018-Jul-15 01:30N 44°35' E 037°38'3 5.6
2018-Jul-15 01:00N 44°34' E 037°41'611.9
2018-Jul-15 00:31N 44°34' E 037°49'4 8.8
2018-Jul-15 00:00N 44°35' E 037°56'0 0.2
2018-Jul-14 23:28N 44°35' E 037°56'0 0.0
2018-Jul-14 22:58N 44°35' E 037°56'0 0.0
2018-Jul-14 22:28N 44°35' E 037°56'0 0.0
2018-Jul-14 21:58N 44°35' E 037°56'0 0.0
2018-Jul-14 21:28N 44°35' E 037°56'0 0.1
2018-Jul-14 20:58N 44°35' E 037°56'0 0.1
2018-Jul-14 20:28N 44°35' E 037°56'0 0.0
2018-Jul-14 19:58N 44°35' E 037°56'0 0.0
2018-Jul-14 19:31N 44°35' E 037°56'0 0.0
2018-Jul-14 18:58N 44°35' E 037°56'0 0.0
2018-Jul-14 18:28N 44°35' E 037°56'0 0.2
2018-Jul-14 17:58N 44°35' E 037°56'0 0.3
2018-Jul-14 17:31N 44°35' E 037°56'0 0.1
2018-Jul-14 16:37N 44°35' E 037°55'0 0.1
2018-Jul-14 16:28N 44°35' E 037°56'0 0.0
2018-Jul-14 15:58N 44°35' E 037°55'0 0.1
2018-Jul-14 15:28N 44°35' E 037°55'0 0.3
2018-Jul-14 15:01N 44°35' E 037°56'0 0.2
2018-Jul-14 14:31N 44°35' E 037°56'0 0.0
2018-Jul-14 13:28N 44°35' E 037°56'0 0.1
2018-Jul-14 12:58N 44°35' E 037°56'0 0.0
2018-Jul-14 12:31N 44°35' E 037°56'0 0.1
2018-Jul-14 11:58N 44°35' E 037°56'0 0.0
2018-Jul-14 11:28N 44°35' E 037°55'0 0.0
2018-Jul-14 10:58N 44°35' E 037°55'0 0.6
2018-Jul-14 10:28N 44°35' E 037°55'0 0.0
2018-Jul-14 09:58N 44°35' E 037°55'0 0.0
2018-Jul-14 09:28N 44°35' E 037°55'0 0.0
2018-Jul-14 08:58N 44°35' E 037°55'0 0.1
2018-Jul-14 08:28N 44°35' E 037°55'0 0.1
2018-Jul-14 07:58N 44°35' E 037°55'0 0.0
2018-Jul-14 07:28N 44°35' E 037°55'0 0.0
2018-Jul-14 06:58N 44°35' E 037°55'0 0.1
2018-Jul-14 06:28N 44°35' E 037°55'0 0.0
2018-Jul-14 05:58N 44°35' E 037°55'0 0.1
2018-Jul-14 05:31N 44°35' E 037°55'0 0.0
2018-Jul-14 04:55N 44°35' E 037°55'0 0.0
2018-Jul-14 04:28N 44°35' E 037°55'0 0.0
2018-Jul-14 03:58N 44°35' E 037°55'0 0.0
2018-Jul-14 03:28N 44°35' E 037°55'0 0.1
2018-Jul-14 02:58N 44°35' E 037°55'0 0.1
2018-Jul-14 02:28N 44°35' E 037°55'0 0.0
2018-Jul-14 01:58N 44°35' E 037°55'0 0.0
2018-Jul-14 01:28N 44°35' E 037°55'0 0.0
2018-Jul-14 01:01N 44°35' E 037°55'0 0.0
2018-Jul-14 00:28N 44°35' E 037°55'0 0.0
2018-Jul-13 23:58N 44°35' E 037°55'0 0.1
2018-Jul-13 23:28N 44°35' E 037°55'0 0.2
2018-Jul-13 23:01N 44°35' E 037°55'0 0.1
2018-Jul-13 22:28N 44°35' E 037°55'0 0.0
2018-Jul-13 21:58N 44°35' E 037°55'0 0.1
2018-Jul-13 21:28N 44°35' E 037°55'0 0.1
2018-Jul-13 20:58N 44°35' E 037°55'0 0.1
2018-Jul-13 20:28N 44°35' E 037°55'0 0.2
2018-Jul-13 19:58N 44°35' E 037°55'0 0.0
2018-Jul-13 19:28N 44°35' E 037°55'0 0.1
2018-Jul-13 18:58N 44°35' E 037°55'0 0.0
2018-Jul-13 18:28N 44°35' E 037°55'0 0.1
2018-Jul-13 17:58N 44°35' E 037°55'0 0.0
2018-Jul-13 17:31N 44°35' E 037°55'0 0.1
2018-Jul-13 17:01N 44°35' E 037°55'0 0.1
2018-Jul-13 16:28N 44°35' E 037°55'0 0.2
2018-Jul-13 15:58N 44°35' E 037°55'0 0.0
2018-Jul-13 15:28N 44°35' E 037°55'0 0.0
2018-Jul-13 15:01N 44°35' E 037°55'0 0.0
2018-Jul-13 14:28N 44°35' E 037°55'0 0.0
2018-Jul-13 13:28N 44°35' E 037°56'0 0.0
2018-Jul-13 12:58N 44°35' E 037°56'0 0.0
2018-Jul-13 12:31N 44°35' E 037°56'0 0.0
2018-Jul-13 11:58N 44°35' E 037°56'0 0.0
2018-Jul-13 11:28N 44°35' E 037°56'0 0.0
2018-Jul-13 10:55N 44°35' E 037°56'0 0.0
2018-Jul-13 10:28N 44°35' E 037°56'0 0.0
2018-Jul-13 10:01N 44°35' E 037°56'0 0.3
2018-Jul-13 09:28N 44°35' E 037°55'0 0.1
2018-Jul-13 08:58N 44°35' E 037°55'0 0.0
2018-Jul-13 08:31N 44°35' E 037°55'0 0.0
2018-Jul-13 07:58N 44°35' E 037°55'0 0.1
2018-Jul-13 07:28N 44°35' E 037°55'0 0.2
2018-Jul-13 06:58N 44°35' E 037°55'0 0.0
2018-Jul-13 06:28N 44°35' E 037°55'0 0.1
2018-Jul-13 05:58N 44°35' E 037°55'0 0.1
2018-Jul-13 05:31N 44°35' E 037°55'0 0.1
2018-Jul-13 04:58N 44°35' E 037°55'0 0.1
2018-Jul-13 04:31N 44°35' E 037°55'0 0.1
2018-Jul-13 03:55N 44°35' E 037°55'0 0.1
2018-Jul-13 03:28N 44°35' E 037°55'0 0.0
2018-Jul-13 02:58N 44°35' E 037°55'0 0.1
2018-Jul-13 02:28N 44°35' E 037°55'0 0.1
2018-Jul-13 01:58N 44°35' E 037°55'0 0.1
2018-Jul-13 01:28N 44°35' E 037°55'0 0.0
2018-Jul-13 01:01N 44°35' E 037°55'0 0.1
2018-Jul-13 00:28N 44°35' E 037°55'0 0.1
2018-Jul-12 23:58N 44°35' E 037°55'0 0.0
2018-Jul-12 23:31N 44°35' E 037°55'0 0.0
2018-Jul-12 22:58N 44°35' E 037°55'0 0.1
2018-Jul-12 22:25N 44°35' E 037°55'0 0.1
2018-Jul-12 21:58N 44°35' E 037°55'0 0.1
2018-Jul-12 21:28N 44°35' E 037°55'0 0.0
2018-Jul-12 20:58N 44°35' E 037°55'0 0.0
2018-Jul-12 20:28N 44°35' E 037°55'0 0.1
2018-Jul-12 20:01N 44°35' E 037°55'0 0.1
2018-Jul-12 19:28N 44°35' E 037°55'0 0.1
2018-Jul-12 18:58N 44°35' E 037°55'0 0.1
2018-Jul-12 18:28N 44°35' E 037°55'0 0.0
2018-Jul-12 17:58N 44°35' E 037°55'0 0.2
2018-Jul-12 17:31N 44°35' E 037°55'0 0.1
2018-Jul-12 16:58N 44°35' E 037°55'0 0.1
2018-Jul-12 16:31N 44°35' E 037°55'0 0.0
2018-Jul-12 15:58N 44°35' E 037°55'0 0.1
2018-Jul-12 15:31N 44°35' E 037°55'0 0.1
2018-Jul-12 14:58N 44°35' E 037°55'0 0.0
2018-Jul-12 14:28N 44°35' E 037°55'0 0.0
2018-Jul-12 13:55N 44°35' E 037°55'0 0.1
2018-Jul-12 13:28N 44°35' E 037°55'0 0.0
2018-Jul-12 12:58N 44°35' E 037°55'0 0.1
2018-Jul-12 12:28N 44°35' E 037°55'0 0.1
2018-Jul-12 11:58N 44°35' E 037°55'0 0.0
2018-Jul-12 11:28N 44°35' E 037°55'0 0.0
2018-Jul-12 10:58N 44°35' E 037°55'0 0.0
2018-Jul-12 10:31N 44°35' E 037°55'0 0.0
2018-Jul-12 09:58N 44°35' E 037°55'0 0.0
2018-Jul-12 09:28N 44°35' E 037°55'0 0.0
2018-Jul-12 08:58N 44°35' E 037°55'0 0.0
2018-Jul-12 08:28N 44°35' E 037°55'0 0.0
2018-Jul-12 07:58N 44°35' E 037°55'0 0.0
2018-Jul-12 07:28N 44°35' E 037°55'0 0.0
2018-Jul-12 06:58N 44°35' E 037°55'0 0.0
2018-Jul-12 06:28N 44°35' E 037°55'0 0.0
2018-Jul-12 05:58N 44°35' E 037°55'0 0.0
2018-Jul-12 05:28N 44°35' E 037°55'0 0.0
2018-Jul-12 04:58N 44°35' E 037°55'0 0.0
2018-Jul-12 04:28N 44°35' E 037°55'0 0.1
2018-Jul-12 03:58N 44°35' E 037°55'0 0.0
2018-Jul-12 03:28N 44°35' E 037°55'0 0.1
2018-Jul-12 02:58N 44°35' E 037°55'0 0.0
2018-Jul-12 02:28N 44°35' E 037°55'0 0.0
2018-Jul-12 02:01N 44°35' E 037°55'0 0.0
2018-Jul-12 01:28N 44°35' E 037°55'0 0.0
2018-Jul-12 00:58N 44°35' E 037°55'0 0.0
2018-Jul-12 00:31N 44°35' E 037°55'0 0.0
2018-Jul-11 23:58N 44°35' E 037°55'0 0.0
2018-Jul-11 23:28N 44°35' E 037°55'0 0.0
2018-Jul-11 22:58N 44°35' E 037°55'0 0.0
2018-Jul-11 22:31N 44°35' E 037°55'0 0.0
2018-Jul-11 21:58N 44°35' E 037°55'0 0.0
2018-Jul-11 21:28N 44°35' E 037°55'0 0.0
2018-Jul-11 20:58N 44°35' E 037°55'0 0.0
2018-Jul-11 20:28N 44°35' E 037°55'0 0.0
2018-Jul-11 19:58N 44°35' E 037°55'0 0.0
2018-Jul-11 19:28N 44°35' E 037°55'0 0.1
2018-Jul-11 18:58N 44°35' E 037°55'0 0.0
2018-Jul-11 18:28N 44°35' E 037°55'0 0.0
2018-Jul-11 18:01N 44°35' E 037°55'0 0.0
2018-Jul-11 17:25N 44°35' E 037°55'0 0.0
2018-Jul-11 16:58N 44°35' E 037°55'0 0.0
2018-Jul-11 16:31N 44°35' E 037°55'0 0.0
2018-Jul-11 15:58N 44°35' E 037°55'0 0.0
2018-Jul-11 15:28N 44°35' E 037°55'0 0.0
2018-Jul-11 14:58N 44°35' E 037°55'0 0.0
2018-Jul-11 14:31N 44°35' E 037°55'0 0.0
2018-Jul-11 13:55N 44°35' E 037°55'0 0.0
2018-Jul-11 13:25N 44°35' E 037°55'0 0.0
2018-Jul-11 12:58N 44°35' E 037°55'0 0.0
2018-Jul-11 12:28N 44°35' E 037°55'0 0.0
2018-Jul-11 11:58N 44°35' E 037°55'0 0.0
2018-Jul-11 11:28N 44°35' E 037°55'0 0.0
2018-Jul-11 11:01N 44°35' E 037°55'0 0.0
2018-Jul-11 10:28N 44°35' E 037°55'0 0.0
2018-Jul-11 09:58N 44°35' E 037°55'0 0.0
2018-Jul-11 09:28N 44°35' E 037°55'0 0.0
2018-Jul-11 09:01N 44°35' E 037°55'0 0.0
2018-Jul-11 08:31N 44°35' E 037°55'0 0.0
2018-Jul-11 07:58N 44°35' E 037°55'0 0.0
2018-Jul-11 07:28N 44°35' E 037°55'0 0.0
2018-Jul-11 06:58N 44°35' E 037°55'0 0.0
2018-Jul-11 06:28N 44°35' E 037°55'0 0.0
2018-Jul-11 06:01N 44°35' E 037°55'0 0.0
2018-Jul-11 05:28N 44°35' E 037°55'0 0.0
2018-Jul-11 04:58N 44°35' E 037°55'0 0.0
2018-Jul-11 04:28N 44°35' E 037°55'0 0.0
2018-Jul-11 04:01N 44°35' E 037°55'0 0.0
2018-Jul-11 03:28N 44°35' E 037°55'0 0.0
2018-Jul-11 02:58N 44°35' E 037°55'0 0.0
2018-Jul-11 02:28N 44°35' E 037°55'0 0.0
2018-Jul-11 01:58N 44°35' E 037°55'0 0.0
2018-Jul-11 01:28N 44°35' E 037°55'0 0.0
2018-Jul-11 00:58N 44°35' E 037°55'0 0.0
2018-Jul-11 00:28N 44°35' E 037°55'0 0.0
2018-Jul-10 23:58N 44°35' E 037°55'0 0.0
2018-Jul-10 23:28N 44°35' E 037°55'0 0.0
2018-Jul-10 22:58N 44°35' E 037°55'0 0.0
2018-Jul-10 22:28N 44°35' E 037°55'0 0.0
2018-Jul-10 21:58N 44°35' E 037°55'0 0.0
2018-Jul-10 21:28N 44°35' E 037°55'0 0.2
2018-Jul-10 20:58N 44°35' E 037°55'0 0.1
2018-Jul-10 20:28N 44°35' E 037°55'0 0.1
2018-Jul-10 20:01N 44°35' E 037°55'0 0.1
2018-Jul-10 19:25N 44°35' E 037°55'0 0.0
2018-Jul-10 18:55N 44°35' E 037°55'0 0.0
2018-Jul-10 18:28N 44°35' E 037°55'0 0.0
2018-Jul-10 17:58N 44°35' E 037°55'0 0.1
2018-Jul-10 17:28N 44°35' E 037°55'0 0.0
2018-Jul-10 16:58N 44°35' E 037°55'0 0.0
2018-Jul-10 16:28N 44°35' E 037°55'0 0.0
2018-Jul-10 16:01N 44°35' E 037°55'0 0.0
2018-Jul-10 15:28N 44°35' E 037°55'0 0.0
2018-Jul-10 14:58N 44°35' E 037°55'0 0.0
2018-Jul-10 14:28N 44°35' E 037°55'0 0.0
2018-Jul-10 13:58N 44°35' E 037°55'0 0.0
2018-Jul-10 13:31N 44°35' E 037°55'0 0.0
2018-Jul-10 12:58N 44°35' E 037°55'0 0.0
2018-Jul-10 12:31N 44°35' E 037°55'0 0.0
2018-Jul-10 12:01N 44°35' E 037°55'0 0.0
2018-Jul-10 11:28N 44°35' E 037°55'0 0.0
2018-Jul-10 10:58N 44°35' E 037°55'0 0.0
2018-Jul-10 10:25N 44°35' E 037°55'0 0.0
2018-Jul-10 09:58N 44°35' E 037°55'0 0.0
2018-Jul-10 09:28N 44°35' E 037°55'0 0.0
2018-Jul-10 08:58N 44°35' E 037°55'0 0.0
2018-Jul-10 08:28N 44°35' E 037°55'0 0.0
2018-Jul-10 07:58N 44°35' E 037°55'0 0.0
2018-Jul-10 07:31N 44°35' E 037°55'0 0.0
2018-Jul-10 06:58N 44°35' E 037°55'0 0.0
2018-Jul-10 06:28N 44°35' E 037°55'0 0.0
2018-Jul-10 05:58N 44°35' E 037°55'0 0.0
2018-Jul-10 05:28N 44°35' E 037°55'0 0.1
2018-Jul-10 04:58N 44°35' E 037°55'0 0.0
2018-Jul-10 04:31N 44°35' E 037°55'0 0.0
2018-Jul-10 03:58N 44°35' E 037°55'0 0.0
2018-Jul-10 03:28N 44°35' E 037°55'0 0.0
2018-Jul-10 03:01N 44°35' E 037°55'0 0.1
2018-Jul-10 02:28N 44°35' E 037°55'0 0.0
2018-Jul-10 01:58N 44°35' E 037°55'0 0.0
2018-Jul-10 01:31N 44°35' E 037°55'0 0.0
2018-Jul-10 00:55N 44°35' E 037°55'0 0.0
2018-Jul-10 00:28N 44°35' E 037°55'0 0.0
2018-Jul-09 23:58N 44°35' E 037°55'0 0.0
2018-Jul-09 23:28N 44°35' E 037°55'0 0.0
2018-Jul-09 22:58N 44°35' E 037°55'0 0.0
2018-Jul-09 22:31N 44°35' E 037°55'0 0.0
2018-Jul-09 21:58N 44°35' E 037°55'0 0.0
2018-Jul-09 21:28N 44°35' E 037°55'0 0.1
2018-Jul-09 20:58N 44°35' E 037°55'0 0.1
2018-Jul-09 20:28N 44°35' E 037°55'0 0.0
2018-Jul-09 19:58N 44°35' E 037°55'0 0.0
2018-Jul-09 19:28N 44°35' E 037°55'0 0.0
2018-Jul-09 19:01N 44°35' E 037°55'0 0.0
2018-Jul-09 18:28N 44°35' E 037°55'0 0.0
2018-Jul-09 17:58N 44°35' E 037°55'0 0.0
2018-Jul-09 17:28N 44°35' E 037°55'0 0.0
2018-Jul-09 16:58N 44°35' E 037°55'0 0.0
2018-Jul-09 16:28N 44°35' E 037°55'0 0.0
2018-Jul-09 15:58N 44°35' E 037°55'0 0.0
2018-Jul-09 15:28N 44°35' E 037°55'0 0.0
2018-Jul-09 14:58N 44°35' E 037°55'0 0.0
2018-Jul-09 14:31N 44°35' E 037°55'0 0.0
2018-Jul-09 13:58N 44°35' E 037°55'0 0.0
2018-Jul-09 13:31N 44°35' E 037°55'0 0.0
2018-Jul-09 13:01N 44°35' E 037°55'0 0.0
2018-Jul-09 12:28N 44°35' E 037°55'0 0.0
2018-Jul-09 11:58N 44°35' E 037°55'0 0.0
2018-Jul-09 11:28N 44°35' E 037°55'0 0.0
2018-Jul-09 10:58N 44°35' E 037°55'0 0.0
2018-Jul-09 10:28N 44°35' E 037°55'0 0.0
2018-Jul-09 09:58N 44°35' E 037°55'0 0.0
2018-Jul-09 09:28N 44°35' E 037°55'0 0.0
2018-Jul-09 09:01N 44°35' E 037°55'0 0.0
2018-Jul-09 08:28N 44°35' E 037°55'0 0.0
2018-Jul-09 07:58N 44°35' E 037°55'0 0.0
2018-Jul-09 07:28N 44°35' E 037°55'0 0.0
2018-Jul-09 06:58N 44°35' E 037°55'0 0.0
2018-Jul-09 06:28N 44°35' E 037°55'0 0.0
2018-Jul-09 05:58N 44°35' E 037°55'0 0.0
2018-Jul-09 05:31N 44°35' E 037°55'0 0.0
2018-Jul-09 04:58N 44°35' E 037°55'0 0.0
2018-Jul-09 04:28N 44°35' E 037°55'0 0.0
2018-Jul-09 03:58N 44°35' E 037°55'0 0.0
2018-Jul-09 03:28N 44°35' E 037°55'0 0.0
2018-Jul-09 02:58N 44°35' E 037°55'0 0.0
2018-Jul-09 02:28N 44°35' E 037°55'0 0.0
2018-Jul-09 01:58N 44°35' E 037°55'0 0.0
2018-Jul-09 01:28N 44°35' E 037°55'0 0.0
2018-Jul-09 00:58N 44°35' E 037°55'0 0.0
2018-Jul-09 00:28N 44°35' E 037°55'0 0.0
2018-Jul-09 00:01N 44°35' E 037°55'0 0.0
2018-Jul-08 23:28N 44°35' E 037°55'0 0.0
2018-Jul-08 22:58N 44°35' E 037°55'0 0.1
2018-Jul-08 22:28N 44°35' E 037°55'0 0.0
2018-Jul-08 21:55N 44°35' E 037°55'0 0.4
2018-Jul-08 21:28N 44°35' E 037°55'0 0.3
2018-Jul-08 21:01N 44°35' E 037°55'0 0.1
2018-Jul-08 20:31N 44°35' E 037°55'0 0.0
2018-Jul-08 19:58N 44°35' E 037°55'0 0.0
2018-Jul-08 19:28N 44°35' E 037°55'0 0.1
2018-Jul-08 18:58N 44°35' E 037°55'0 0.0
2018-Jul-08 18:28N 44°35' E 037°55'0 0.0
2018-Jul-08 17:58N 44°35' E 037°55'0 0.1
2018-Jul-08 17:25N 44°35' E 037°55'0 0.1
2018-Jul-08 17:01N 44°35' E 037°55'0 0.1
2018-Jul-08 16:31N 44°35' E 037°55'0 0.0
2018-Jul-08 15:58N 44°35' E 037°55'0 0.1
2018-Jul-08 15:28N 44°35' E 037°55'0 0.1
2018-Jul-08 14:58N 44°35' E 037°55'0 0.1
2018-Jul-08 14:25N 44°35' E 037°55'0 0.0
2018-Jul-08 13:55N 44°35' E 037°55'0 0.1
2018-Jul-08 13:31N 44°35' E 037°55'0 0.0
2018-Jul-08 12:58N 44°35' E 037°55'0 0.0
2018-Jul-08 12:31N 44°35' E 037°55'0 0.0
2018-Jul-08 12:01N 44°35' E 037°55'0 0.0
2018-Jul-08 11:28N 44°35' E 037°55'0 0.1
2018-Jul-08 10:58N 44°35' E 037°55'0 0.1
2018-Jul-08 10:28N 44°35' E 037°55'0 0.1
2018-Jul-08 10:01N 44°35' E 037°55'0 0.0
2018-Jul-08 09:31N 44°35' E 037°55'0 0.0
2018-Jul-08 08:58N 44°35' E 037°55'0 0.0
2018-Jul-08 08:28N 44°35' E 037°55'0 0.0
2018-Jul-08 07:58N 44°35' E 037°55'0 0.0
2018-Jul-08 07:28N 44°35' E 037°55'0 0.1
2018-Jul-08 06:58N 44°35' E 037°55'0 0.1
2018-Jul-08 06:28N 44°35' E 037°55'0 0.0
2018-Jul-08 06:01N 44°35' E 037°55'0 0.1
2018-Jul-08 05:28N 44°35' E 037°55'0 0.0
2018-Jul-08 04:58N 44°35' E 037°55'0 0.0
2018-Jul-08 04:28N 44°35' E 037°55'0 0.1
2018-Jul-08 03:58N 44°35' E 037°55'0 0.0
2018-Jul-08 03:31N 44°35' E 037°55'0 0.0
2018-Jul-08 02:58N 44°35' E 037°55'0 0.0
2018-Jul-08 02:28N 44°35' E 037°55'0 0.0
2018-Jul-08 01:58N 44°35' E 037°55'0 0.0
2018-Jul-08 01:25N 44°35' E 037°55'0 0.0
2018-Jul-08 00:58N 44°35' E 037°55'0 0.1
2018-Jul-08 00:28N 44°35' E 037°55'0 0.2
2018-Jul-08 00:01N 44°35' E 037°55'0 0.2
2018-Jul-07 23:28N 44°35' E 037°55'0 0.1
2018-Jul-07 22:58N 44°35' E 037°55'0 0.1
2018-Jul-07 22:28N 44°35' E 037°55'0 0.0
2018-Jul-07 22:01N 44°35' E 037°55'0 0.1
2018-Jul-07 21:31N 44°35' E 037°55'0 0.1
2018-Jul-07 21:01N 44°35' E 037°55'0 0.0
2018-Jul-07 20:28N 44°35' E 037°55'0 0.0
2018-Jul-07 19:58N 44°35' E 037°55'0 0.1
2018-Jul-07 19:31N 44°35' E 037°55'0 0.1
2018-Jul-07 18:58N 44°35' E 037°55'0 0.1
2018-Jul-07 18:31N 44°35' E 037°55'0 0.0
2018-Jul-07 17:58N 44°35' E 037°55'0 0.0
2018-Jul-07 17:28N 44°35' E 037°55'0 0.0
2018-Jul-07 16:58N 44°35' E 037°55'0 0.0
2018-Jul-07 16:28N 44°35' E 037°55'0 0.0
2018-Jul-07 16:01N 44°35' E 037°55'0 0.0
2018-Jul-07 15:31N 44°35' E 037°55'0 0.0
2018-Jul-07 14:58N 44°35' E 037°55'0 0.0
2018-Jul-07 14:28N 44°35' E 037°55'0 0.0
2018-Jul-07 13:58N 44°35' E 037°55'0 0.2
2018-Jul-07 13:28N 44°35' E 037°55'0 0.1
2018-Jul-07 12:58N 44°35' E 037°55'0 0.0
2018-Jul-07 12:28N 44°35' E 037°55'0 0.1
2018-Jul-07 11:58N 44°35' E 037°55'0 0.0
2018-Jul-07 11:28N 44°35' E 037°55'0 0.1
2018-Jul-07 10:58N 44°35' E 037°55'0 0.3
2018-Jul-07 10:28N 44°35' E 037°55'0 0.1
2018-Jul-07 09:58N 44°35' E 037°55'0 0.0
2018-Jul-07 09:28N 44°35' E 037°55'0 0.0
2018-Jul-07 08:58N 44°35' E 037°55'0 0.0
2018-Jul-07 08:31N 44°35' E 037°55'0 0.0
2018-Jul-07 07:58N 44°35' E 037°55'0 0.0
2018-Jul-07 07:28N 44°35' E 037°55'0 0.0
2018-Jul-07 06:58N 44°35' E 037°55'0 0.0
2018-Jul-07 06:28N 44°35' E 037°55'0 0.1
2018-Jul-07 06:01N 44°35' E 037°55'0 0.0
2018-Jul-07 05:28N 44°35' E 037°55'0 0.0
2018-Jul-07 04:58N 44°35' E 037°55'0 0.0
2018-Jul-07 04:28N 44°35' E 037°55'0 0.0
2018-Jul-07 04:01N 44°35' E 037°55'0 0.0
2018-Jul-07 03:31N 44°35' E 037°55'0 0.0
2018-Jul-07 02:58N 44°35' E 037°55'0 0.0
2018-Jul-07 02:28N 44°35' E 037°55'0 0.0
2018-Jul-07 01:58N 44°35' E 037°55'0 0.0
2018-Jul-07 01:28N 44°35' E 037°55'0 0.0
2018-Jul-07 01:01N 44°35' E 037°55'0 0.0
2018-Jul-07 00:28N 44°35' E 037°55'0 0.0
2018-Jul-07 00:01N 44°35' E 037°55'0 0.1
2018-Jul-06 23:28N 44°35' E 037°55'0 0.0
2018-Jul-06 22:58N 44°35' E 037°55'0 0.0
2018-Jul-06 22:28N 44°35' E 037°55'0 0.0
2018-Jul-06 21:58N 44°35' E 037°55'0 0.0
2018-Jul-06 21:25N 44°35' E 037°55'0 0.0
2018-Jul-06 20:58N 44°35' E 037°55'0 0.0
2018-Jul-06 20:28N 44°35' E 037°55'0 0.0
2018-Jul-06 19:58N 44°35' E 037°55'0 0.0
2018-Jul-06 19:28N 44°35' E 037°55'0 0.0
2018-Jul-06 18:58N 44°35' E 037°55'0 0.0
2018-Jul-06 18:28N 44°35' E 037°55'0 0.0
2018-Jul-06 18:01N 44°35' E 037°55'0 0.0
2018-Jul-06 17:28N 44°35' E 037°55'0 0.0
2018-Jul-06 16:58N 44°35' E 037°55'0 0.0
2018-Jul-06 16:28N 44°35' E 037°55'0 0.0
2018-Jul-06 15:58N 44°35' E 037°55'0 0.0
2018-Jul-06 15:28N 44°35' E 037°55'0 0.0
2018-Jul-06 14:58N 44°35' E 037°55'0 0.2
2018-Jul-06 14:28N 44°35' E 037°55'1 1.6
2018-Jul-06 14:00N 44°35' E 037°54'1 2.6
2018-Jul-06 13:31N 44°34' E 037°53'3 5.5
2018-Jul-06 13:00N 44°34' E 037°49'2 4.7
2018-Jul-06 12:30N 44°33' E 037°46'1 2.0
2018-Jul-06 12:01N 44°32' E 037°45'  

Dump ship's entire track history